EZY507H EGGP-EGAA
Flight info
| Callsign | EZY507H |
|---|---|
| Flight time | 0h 33m |
| Altitude | 22000 |
| Route | WAL M146 IPSET P6 BELZU |
| Aircraft | A320/M-SDE3FGHIRWY/LB1 |
Departure
| Time | 2026-05-07 16:19 |
|---|---|
| Airport | Liverpool John Lennon Airport (EGGP) |
Arrival
| Time | 2026-05-07 16:52 |
|---|---|
| Airport | Belfast International Airport (EGAA) |
| Time | Latitude | Longitude | Altitude | Speed | Heading |
|---|---|---|---|---|---|
| 2026-05-07 15:50 | 53.33657 | -2.85590 | 96 ft | 0 kts | 358° |
| 2026-05-07 16:09 | 53.33635 | -2.85591 | 94 ft | 4 kts | 13° |
| 2026-05-07 16:09 | 53.33612 | -2.85608 | 94 ft | 4 kts | 52° |
| 2026-05-07 16:10 | 53.33605 | -2.85634 | 94 ft | 1 kts | 84° |
| 2026-05-07 16:10 | 53.33604 | -2.85640 | 94 ft | 0 kts | 84° |
| 2026-05-07 16:13 | 53.33605 | -2.85632 | 96 ft | 2 kts | 84° |
| 2026-05-07 16:13 | 53.33607 | -2.85601 | 94 ft | 4 kts | 84° |
| 2026-05-07 16:13 | 53.33601 | -2.85516 | 96 ft | 9 kts | 138° |
| 2026-05-07 16:14 | 53.33532 | -2.85506 | 96 ft | 11 kts | 174° |
| 2026-05-07 16:14 | 53.33503 | -2.85569 | 94 ft | 7 kts | 265° |
| 2026-05-07 16:14 | 53.33499 | -2.85664 | 97 ft | 10 kts | 265° |
| 2026-05-07 16:14 | 53.33492 | -2.85791 | 95 ft | 11 kts | 265° |
| 2026-05-07 16:15 | 53.33487 | -2.85910 | 94 ft | 10 kts | 265° |
| 2026-05-07 16:15 | 53.33480 | -2.86043 | 96 ft | 13 kts | 265° |
| 2026-05-07 16:15 | 53.33474 | -2.86180 | 94 ft | 11 kts | 265° |
| 2026-05-07 16:15 | 53.33468 | -2.86304 | 94 ft | 10 kts | 265° |
| 2026-05-07 16:16 | 53.33462 | -2.86417 | 94 ft | 9 kts | 264° |
| 2026-05-07 16:16 | 53.33456 | -2.86521 | 94 ft | 8 kts | 266° |
| 2026-05-07 16:16 | 53.33452 | -2.86612 | 98 ft | 7 kts | 266° |
| 2026-05-07 16:16 | 53.33437 | -2.86685 | 96 ft | 6 kts | 235° |
| 2026-05-07 16:17 | 53.33420 | -2.86710 | 94 ft | 2 kts | 217° |
| 2026-05-07 16:17 | 53.33397 | -2.86727 | 94 ft | 5 kts | 197° |
| 2026-05-07 16:17 | 53.33355 | -2.86729 | 94 ft | 8 kts | 168° |
| 2026-05-07 16:17 | 53.33300 | -2.86672 | 94 ft | 9 kts | 143° |
| 2026-05-07 16:18 | 53.33287 | -2.86587 | 95 ft | 10 kts | 88° |
| 2026-05-07 16:18 | 53.33308 | -2.86149 | 98 ft | 75 kts | 85° |
| 2026-05-07 16:18 | 53.33366 | -2.84910 | 95 ft | 135 kts | 85° |
| 2026-05-07 16:18 | 53.33436 | -2.83172 | 427 ft | 152 kts | 92° |
| 2026-05-07 16:19 | 53.33525 | -2.81405 | 1090 ft | 155 kts | 91° |
| 2026-05-07 16:19 | 53.33673 | -2.79526 | 1486 ft | 175 kts | 78° |
| 2026-05-07 16:19 | 53.34255 | -2.77626 | 1900 ft | 198 kts | 53° |
| 2026-05-07 16:19 | 53.35330 | -2.76148 | 2644 ft | 201 kts | 28° |
| 2026-05-07 16:20 | 53.36671 | -2.75495 | 3366 ft | 202 kts | 2° |
| 2026-05-07 16:20 | 53.38024 | -2.75861 | 3989 ft | 203 kts | 336° |
| 2026-05-07 16:20 | 53.39200 | -2.77141 | 4583 ft | 203 kts | 311° |
| 2026-05-07 16:20 | 53.39946 | -2.79093 | 5229 ft | 197 kts | 284° |
| 2026-05-07 16:21 | 53.40126 | -2.81314 | 5904 ft | 191 kts | 261° |
| 2026-05-07 16:21 | 53.39807 | -2.83430 | 6559 ft | 186 kts | 241° |
| 2026-05-07 16:21 | 53.39271 | -2.85422 | 7161 ft | 189 kts | 246° |
| 2026-05-07 16:21 | 53.38861 | -2.87520 | 7798 ft | 190 kts | 251° |
| 2026-05-07 16:22 | 53.38553 | -2.89735 | 8214 ft | 205 kts | 256° |
| 2026-05-07 16:22 | 53.38357 | -2.92271 | 8399 ft | 235 kts | 263° |
| 2026-05-07 16:22 | 53.38354 | -2.95150 | 8787 ft | 261 kts | 270° |
| 2026-05-07 16:22 | 53.38504 | -2.98277 | 9432 ft | 274 kts | 271° |
| 2026-05-07 16:23 | 53.38654 | -3.01490 | 10221 ft | 282 kts | 271° |
| 2026-05-07 16:23 | 53.38937 | -3.04891 | 10515 ft | 308 kts | 279° |
| 2026-05-07 16:23 | 53.39435 | -3.08511 | 10827 ft | 327 kts | 277° |
| 2026-05-07 16:23 | 53.39847 | -3.12321 | 11446 ft | 337 kts | 281° |
| 2026-05-07 16:24 | 53.40834 | -3.15948 | 12160 ft | 350 kts | 302° |
| 2026-05-07 16:24 | 53.42461 | -3.19035 | 12919 ft | 357 kts | 311° |
| 2026-05-07 16:24 | 53.44211 | -3.22012 | 13680 ft | 360 kts | 312° |
| 2026-05-07 16:24 | 53.45983 | -3.25019 | 14366 ft | 364 kts | 312° |
| 2026-05-07 16:25 | 53.47766 | -3.28047 | 15054 ft | 366 kts | 312° |
| 2026-05-07 16:25 | 53.49563 | -3.31106 | 15745 ft | 369 kts | 312° |
| 2026-05-07 16:25 | 53.51369 | -3.34192 | 16431 ft | 372 kts | 312° |
| 2026-05-07 16:25 | 53.53185 | -3.37304 | 17115 ft | 374 kts | 311° |
| 2026-05-07 16:26 | 53.55009 | -3.40446 | 17797 ft | 377 kts | 311° |
| 2026-05-07 16:26 | 53.56848 | -3.43619 | 18458 ft | 380 kts | 312° |
| 2026-05-07 16:26 | 53.58595 | -3.46960 | 19024 ft | 381 kts | 306° |
| 2026-05-07 16:26 | 53.59676 | -3.49300 | 19404 ft | 383 kts | 304° |
| 2026-05-07 16:27 | 53.61761 | -3.54189 | 20159 ft | 387 kts | 302° |
| 2026-05-07 16:27 | 53.63267 | -3.57896 | 20721 ft | 390 kts | 302° |
| 2026-05-07 16:27 | 53.64797 | -3.61694 | 21279 ft | 393 kts | 302° |
| 2026-05-07 16:27 | 53.66349 | -3.65512 | 21816 ft | 397 kts | 302° |
| 2026-05-07 16:28 | 53.67920 | -3.69338 | 21966 ft | 398 kts | 302° |
| 2026-05-07 16:28 | 53.69517 | -3.73183 | 22004 ft | 402 kts | 302° |
| 2026-05-07 16:28 | 53.71134 | -3.77048 | 21996 ft | 403 kts | 303° |
| 2026-05-07 16:28 | 53.72757 | -3.80913 | 21998 ft | 403 kts | 303° |
| 2026-05-07 16:29 | 53.74377 | -3.84782 | 21996 ft | 403 kts | 302° |
| 2026-05-07 16:29 | 53.75995 | -3.88658 | 21998 ft | 403 kts | 302° |
| 2026-05-07 16:29 | 53.77608 | -3.92532 | 21996 ft | 403 kts | 302° |
| 2026-05-07 16:29 | 53.79219 | -3.96418 | 21996 ft | 403 kts | 302° |
| 2026-05-07 16:30 | 53.80827 | -4.00308 | 21992 ft | 403 kts | 302° |
| 2026-05-07 16:30 | 53.82434 | -4.04202 | 21994 ft | 403 kts | 302° |
| 2026-05-07 16:30 | 53.84035 | -4.08092 | 21993 ft | 403 kts | 302° |
| 2026-05-07 16:30 | 53.85635 | -4.11994 | 21994 ft | 403 kts | 302° |
| 2026-05-07 16:31 | 53.87231 | -4.15895 | 21994 ft | 403 kts | 302° |
| 2026-05-07 16:31 | 53.88828 | -4.19801 | 22005 ft | 403 kts | 302° |
| 2026-05-07 16:31 | 53.90422 | -4.23700 | 22005 ft | 402 kts | 302° |
| 2026-05-07 16:31 | 53.92014 | -4.27597 | 22012 ft | 402 kts | 302° |
| 2026-05-07 16:32 | 53.93604 | -4.31494 | 21989 ft | 402 kts | 301° |
| 2026-05-07 16:32 | 53.95192 | -4.35395 | 21990 ft | 402 kts | 301° |
| 2026-05-07 16:32 | 53.96779 | -4.39298 | 21981 ft | 402 kts | 301° |
| 2026-05-07 16:32 | 53.98366 | -4.43205 | 21980 ft | 402 kts | 301° |
| 2026-05-07 16:33 | 53.99952 | -4.47116 | 21975 ft | 402 kts | 301° |
| 2026-05-07 16:33 | 54.01544 | -4.51018 | 21977 ft | 403 kts | 303° |
| 2026-05-07 16:33 | 54.03376 | -4.54646 | 21968 ft | 405 kts | 309° |
| 2026-05-07 16:33 | 54.05260 | -4.58123 | 21973 ft | 405 kts | 309° |
| 2026-05-07 16:34 | 54.07190 | -4.61702 | 21976 ft | 405 kts | 309° |
| 2026-05-07 16:34 | 54.09091 | -4.65236 | 21975 ft | 405 kts | 309° |
| 2026-05-07 16:34 | 54.10963 | -4.68725 | 21974 ft | 405 kts | 309° |
| 2026-05-07 16:34 | 54.12887 | -4.72313 | 21977 ft | 405 kts | 309° |
| 2026-05-07 16:35 | 54.14758 | -4.75808 | 21973 ft | 405 kts | 309° |
| 2026-05-07 16:35 | 54.16654 | -4.79356 | 21996 ft | 405 kts | 309° |
| 2026-05-07 16:35 | 54.18552 | -4.82915 | 21991 ft | 405 kts | 309° |
| 2026-05-07 16:35 | 54.20442 | -4.86468 | 21995 ft | 405 kts | 309° |
| 2026-05-07 16:36 | 54.22335 | -4.90026 | 21981 ft | 405 kts | 309° |
| 2026-05-07 16:36 | 54.24227 | -4.93581 | 21942 ft | 402 kts | 309° |
| 2026-05-07 16:36 | 54.26087 | -4.97073 | 21667 ft | 393 kts | 309° |
| 2026-05-07 16:36 | 54.27911 | -5.00505 | 21405 ft | 387 kts | 309° |
| 2026-05-07 16:37 | 54.29711 | -5.03897 | 21105 ft | 382 kts | 308° |
| 2026-05-07 16:37 | 54.31482 | -5.07243 | 20616 ft | 378 kts | 308° |
| 2026-05-07 16:37 | 54.33237 | -5.10566 | 20164 ft | 374 kts | 308° |
| 2026-05-07 16:37 | 54.34975 | -5.13869 | 19682 ft | 372 kts | 308° |
| 2026-05-07 16:38 | 54.36695 | -5.17145 | 19200 ft | 369 kts | 308° |
| 2026-05-07 16:38 | 54.38411 | -5.20411 | 18726 ft | 367 kts | 308° |
| 2026-05-07 16:38 | 54.40117 | -5.23659 | 18235 ft | 366 kts | 308° |
| 2026-05-07 16:38 | 54.41818 | -5.26905 | 17701 ft | 364 kts | 308° |
| 2026-05-07 16:39 | 54.43501 | -5.30124 | 17215 ft | 361 kts | 308° |
| 2026-05-07 16:39 | 54.45172 | -5.33324 | 16730 ft | 358 kts | 308° |
| 2026-05-07 16:39 | 54.46832 | -5.36429 | 16257 ft | 357 kts | 309° |
| 2026-05-07 16:39 | 54.48563 | -5.39549 | 15760 ft | 355 kts | 310° |
| 2026-05-07 16:40 | 54.50248 | -5.42564 | 15293 ft | 352 kts | 308° |
| 2026-05-07 16:40 | 54.51682 | -5.45942 | 14821 ft | 346 kts | 296° |
| 2026-05-07 16:40 | 54.52666 | -5.49663 | 14358 ft | 339 kts | 285° |
| 2026-05-07 16:40 | 54.53388 | -5.53527 | 13894 ft | 338 kts | 284° |
| 2026-05-07 16:41 | 54.54151 | -5.57344 | 13393 ft | 338 kts | 292° |
| 2026-05-07 16:41 | 54.55506 | -5.60623 | 12788 ft | 337 kts | 313° |
| 2026-05-07 16:41 | 54.57307 | -5.63225 | 11559 ft | 343 kts | 319° |
| 2026-05-07 16:41 | 54.59214 | -5.65794 | 10237 ft | 351 kts | 319° |
| 2026-05-07 16:42 | 54.61078 | -5.68301 | 9978 ft | 325 kts | 318° |
| 2026-05-07 16:42 | 54.62553 | -5.70960 | 9840 ft | 292 kts | 297° |
| 2026-05-07 16:42 | 54.63210 | -5.74107 | 9350 ft | 272 kts | 271° |
| 2026-05-07 16:42 | 54.62954 | -5.77235 | 8817 ft | 262 kts | 243° |
| 2026-05-07 16:43 | 54.61875 | -5.79661 | 8436 ft | 257 kts | 216° |
| 2026-05-07 16:43 | 54.60239 | -5.80854 | 8014 ft | 259 kts | 189° |
| 2026-05-07 16:43 | 54.58454 | -5.80495 | 7599 ft | 265 kts | 161° |
| 2026-05-07 16:43 | 54.56960 | -5.78674 | 7204 ft | 273 kts | 134° |
| 2026-05-07 16:44 | 54.56288 | -5.76779 | 6926 ft | 278 kts | 115° |
| 2026-05-07 16:44 | 54.56107 | -5.72394 | 6409 ft | 285 kts | 77° |
| 2026-05-07 16:44 | 54.57005 | -5.69367 | 6002 ft | 287 kts | 48° |
| 2026-05-07 16:44 | 54.58594 | -5.67358 | 5566 ft | 284 kts | 20° |
| 2026-05-07 16:45 | 54.60506 | -5.66821 | 5178 ft | 277 kts | 351° |
| 2026-05-07 16:45 | 54.62284 | -5.67827 | 4762 ft | 267 kts | 322° |
| 2026-05-07 16:45 | 54.63667 | -5.69901 | 4297 ft | 263 kts | 310° |
| 2026-05-07 16:45 | 54.64942 | -5.72157 | 4011 ft | 263 kts | 309° |
| 2026-05-07 16:46 | 54.65800 | -5.73702 | 3825 ft | 263 kts | 309° |
| 2026-05-07 16:46 | 54.67061 | -5.75986 | 3537 ft | 263 kts | 309° |
| 2026-05-07 16:46 | 54.68302 | -5.78241 | 3261 ft | 262 kts | 309° |
| 2026-05-07 16:46 | 54.69501 | -5.80558 | 2973 ft | 253 kts | 299° |
| 2026-05-07 16:47 | 54.70226 | -5.83232 | 2692 ft | 242 kts | 285° |
| 2026-05-07 16:47 | 54.70778 | -5.85918 | 2544 ft | 231 kts | 284° |
| 2026-05-07 16:47 | 54.71293 | -5.88475 | 2528 ft | 222 kts | 284° |
| 2026-05-07 16:47 | 54.71792 | -5.90959 | 2531 ft | 212 kts | 284° |
| 2026-05-07 16:48 | 54.72269 | -5.93279 | 2520 ft | 196 kts | 282° |
| 2026-05-07 16:48 | 54.72451 | -5.95472 | 2527 ft | 178 kts | 261° |
| 2026-05-07 16:48 | 54.72186 | -5.97511 | 2571 ft | 172 kts | 243° |
| 2026-05-07 16:48 | 54.71699 | -5.99353 | 2530 ft | 161 kts | 241° |
| 2026-05-07 16:49 | 54.71244 | -6.01058 | 2512 ft | 152 kts | 241° |
| 2026-05-07 16:49 | 54.70804 | -6.02704 | 2383 ft | 150 kts | 240° |
| 2026-05-07 16:49 | 54.70370 | -6.04330 | 2208 ft | 148 kts | 240° |
| 2026-05-07 16:49 | 54.69938 | -6.05945 | 2024 ft | 148 kts | 241° |
| 2026-05-07 16:50 | 54.69508 | -6.07553 | 1825 ft | 147 kts | 240° |
| 2026-05-07 16:50 | 54.69076 | -6.09169 | 1637 ft | 146 kts | 240° |
| 2026-05-07 16:50 | 54.68662 | -6.10720 | 1430 ft | 138 kts | 240° |
| 2026-05-07 16:50 | 54.68258 | -6.12228 | 1237 ft | 140 kts | 242° |
| 2026-05-07 16:51 | 54.67855 | -6.13732 | 1045 ft | 137 kts | 239° |
| 2026-05-07 16:51 | 54.67446 | -6.15251 | 840 ft | 140 kts | 241° |
| 2026-05-07 16:51 | 54.67040 | -6.16768 | 659 ft | 139 kts | 242° |
| 2026-05-07 16:51 | 54.66631 | -6.18292 | 487 ft | 141 kts | 241° |
| 2026-05-07 16:52 | 54.66224 | -6.19820 | 293 ft | 139 kts | 240° |
| 2026-05-07 16:52 | 54.65846 | -6.21209 | 241 ft | 113 kts | 245° |
| 2026-05-07 16:52 | 54.65584 | -6.22184 | 225 ft | 65 kts | 245° |
| 2026-05-07 16:52 | 54.65479 | -6.22602 | 226 ft | 17 kts | 262° |
| 2026-05-07 16:53 | 54.65555 | -6.22727 | 224 ft | 17 kts | 344° |
| 2026-05-07 16:53 | 54.65670 | -6.22793 | 222 ft | 18 kts | 342° |
| 2026-05-07 16:53 | 54.65744 | -6.22683 | 219 ft | 15 kts | 86° |
| 2026-05-07 16:53 | 54.65752 | -6.22527 | 221 ft | 12 kts | 85° |
| 2026-05-07 16:54 | 54.65765 | -6.22341 | 226 ft | 16 kts | 83° |
| 2026-05-07 16:54 | 54.65779 | -6.22172 | 230 ft | 12 kts | 77° |
| 2026-05-07 16:54 | 54.65805 | -6.22048 | 232 ft | 12 kts | 64° |
| 2026-05-07 16:54 | 54.65836 | -6.21936 | 234 ft | 9 kts | 65° |
| 2026-05-07 16:55 | 54.65858 | -6.21855 | 236 ft | 6 kts | 65° |
| 2026-05-07 16:55 | 54.65872 | -6.21800 | 240 ft | 4 kts | 65° |
| 2026-05-07 16:55 | 54.65879 | -6.21776 | 236 ft | 1 kts | 65° |
| 2026-05-07 16:55 | 54.65886 | -6.21748 | 236 ft | 3 kts | 65° |
| 2026-05-07 16:56 | 54.65893 | -6.21722 | 237 ft | 3 kts | 65° |
| 2026-05-07 16:56 | 54.65906 | -6.21677 | 237 ft | 5 kts | 64° |
| 2026-05-07 16:56 | 54.65926 | -6.21606 | 238 ft | 1 kts | 64° |
| 2026-05-07 16:57 | 54.65926 | -6.21605 | 238 ft | 0 kts | 64° |
| 2026-05-07 16:57 | 54.65939 | -6.21557 | 239 ft | 9 kts | 65° |
| 2026-05-07 16:58 | 54.65966 | -6.21454 | 241 ft | 12 kts | 65° |
| 2026-05-07 16:58 | 54.65999 | -6.21333 | 242 ft | 11 kts | 65° |
| 2026-05-07 16:58 | 54.66029 | -6.21225 | 244 ft | 8 kts | 57° |
| 2026-05-07 16:58 | 54.66086 | -6.21224 | 244 ft | 10 kts | 335° |
| 2026-05-07 16:59 | 54.66148 | -6.21274 | 243 ft | 7 kts | 334° |
| 2026-05-07 16:59 | 54.66153 | -6.21349 | 242 ft | 7 kts | 246° |
| 2026-05-07 16:59 | 54.66146 | -6.21375 | 241 ft | 1 kts | 245° |
| 2026-05-07 16:59 | 54.66145 | -6.21379 | 241 ft | 0 kts | 245° |